sensor_id;sensor_type;location;lat;lon;timestamp;temperature;humidity
26270;DHT22;15937;50.612;6.656;2024-03-23T00:53:34;6.90;99.90
26270;DHT22;15937;50.612;6.656;2024-03-23T00:57:35;6.90;99.90
26270;DHT22;15937;50.612;6.656;2024-03-23T01:01:36;6.80;99.90
26270;DHT22;15937;50.612;6.656;2024-03-23T01:05:37;6.80;99.90
26270;DHT22;15937;50.612;6.656;2024-03-23T01:09:41;6.70;99.90
26270;DHT22;15937;50.612;6.656;2024-03-23T01:13:42;6.70;99.90
26270;DHT22;15937;50.612;6.656;2024-03-23T01:17:43;6.80;99.90
26270;DHT22;15937;50.612;6.656;2024-03-23T01:21:44;6.70;99.90
26270;DHT22;15937;50.612;6.656;2024-03-23T01:25:55;6.80;99.90
26270;DHT22;15937;50.612;6.656;2024-03-23T01:29:56;6.60;99.90
26270;DHT22;15937;50.612;6.656;2024-03-23T01:33:58;6.60;99.90
26270;DHT22;15937;50.612;6.656;2024-03-23T01:37:59;6.70;99.90
26270;DHT22;15937;50.612;6.656;2024-03-23T01:42:01;6.70;99.90
26270;DHT22;15937;50.612;6.656;2024-03-23T01:46:02;6.60;99.90
26270;DHT22;15937;50.612;6.656;2024-03-23T01:50:05;6.80;99.90
26270;DHT22;15937;50.612;6.656;2024-03-23T01:54:07;6.50;99.90
26270;DHT22;15937;50.612;6.656;2024-03-23T01:58:09;6.60;99.90
26270;DHT22;15937;50.612;6.656;2024-03-23T02:02:10;6.60;99.90
26270;DHT22;15937;50.612;6.656;2024-03-23T02:06:11;6.50;99.90
26270;DHT22;15937;50.612;6.656;2024-03-23T02:10:12;6.50;99.90
26270;DHT22;15937;50.612;6.656;2024-03-23T02:14:16;6.40;99.90
26270;DHT22;15937;50.612;6.656;2024-03-23T02:18:17;6.30;99.90
26270;DHT22;15937;50.612;6.656;2024-03-23T02:22:18;6.20;99.90
26270;DHT22;15937;50.612;6.656;2024-03-23T02:26:19;6.20;99.90
26270;DHT22;15937;50.612;6.656;2024-03-23T02:30:20;6.10;99.90
26270;DHT22;15937;50.612;6.656;2024-03-23T02:34:22;6.10;99.90
26270;DHT22;15937;50.612;6.656;2024-03-23T02:38:23;6.00;99.90
26270;DHT22;15937;50.612;6.656;2024-03-23T02:42:24;5.40;99.90
26270;DHT22;15937;50.612;6.656;2024-03-23T02:46:25;5.10;99.90
26270;DHT22;15937;50.612;6.656;2024-03-23T02:50:26;5.10;99.90
26270;DHT22;15937;50.612;6.656;2024-03-23T02:54:29;5.00;99.90
26270;DHT22;15937;50.612;6.656;2024-03-23T02:58:30;5.00;99.90
26270;DHT22;15937;50.612;6.656;2024-03-23T03:02:31;4.90;99.90
26270;DHT22;15937;50.612;6.656;2024-03-23T03:06:33;4.80;99.90
26270;DHT22;15937;50.612;6.656;2024-03-23T03:10:37;4.80;99.90
26270;DHT22;15937;50.612;6.656;2024-03-23T03:14:38;4.80;99.90
26270;DHT22;15937;50.612;6.656;2024-03-23T03:18:39;4.70;99.90
26270;DHT22;15937;50.612;6.656;2024-03-23T03:22:42;4.60;99.90
26270;DHT22;15937;50.612;6.656;2024-03-23T03:26:43;4.50;99.90
26270;DHT22;15937;50.612;6.656;2024-03-23T03:30:45;4.60;99.90
26270;DHT22;15937;50.612;6.656;2024-03-23T03:34:46;4.60;99.90
26270;DHT22;15937;50.612;6.656;2024-03-23T03:38:48;4.60;99.90
26270;DHT22;15937;50.612;6.656;2024-03-23T03:42:48;4.70;99.90
26270;DHT22;15937;50.612;6.656;2024-03-23T03:46:49;4.70;99.90
26270;DHT22;15937;50.612;6.656;2024-03-23T03:50:51;4.60;99.90
26270;DHT22;15937;50.612;6.656;2024-03-23T03:55:01;4.60;99.90
26270;DHT22;15937;50.612;6.656;2024-03-23T03:59:02;4.70;99.90
26270;DHT22;15937;50.612;6.656;2024-03-23T04:03:04;4.80;99.90
26270;DHT22;15937;50.612;6.656;2024-03-23T04:07:05;4.80;99.90
26270;DHT22;15937;50.612;6.656;2024-03-23T04:11:06;4.80;99.90
26270;DHT22;15937;50.612;6.656;2024-03-23T04:15:08;4.70;99.90
26270;DHT22;15937;50.612;6.656;2024-03-23T04:19:09;4.70;99.90
26270;DHT22;15937;50.612;6.656;2024-03-23T04:23:10;4.60;99.90
26270;DHT22;15937;50.612;6.656;2024-03-23T04:27:11;4.70;99.90
26270;DHT22;15937;50.612;6.656;2024-03-23T04:31:13;4.70;99.90
26270;DHT22;15937;50.612;6.656;2024-03-23T04:35:17;4.60;99.90
26270;DHT22;15937;50.612;6.656;2024-03-23T04:39:18;4.90;99.90
26270;DHT22;15937;50.612;6.656;2024-03-23T04:43:20;4.70;99.90
26270;DHT22;15937;50.612;6.656;2024-03-23T04:47:22;4.90;99.90
26270;DHT22;15937;50.612;6.656;2024-03-23T04:51:23;5.00;99.90
26270;DHT22;15937;50.612;6.656;2024-03-23T04:55:28;5.00;99.90
26270;DHT22;15937;50.612;6.656;2024-03-23T04:59:30;5.00;99.90
26270;DHT22;15937;50.612;6.656;2024-03-23T05:03:31;5.10;99.90
26270;DHT22;15937;50.612;6.656;2024-03-23T05:07:32;5.20;99.90
26270;DHT22;15937;50.612;6.656;2024-03-23T05:11:36;5.20;99.90
26270;DHT22;15937;50.612;6.656;2024-03-23T05:15:40;5.20;99.90
26270;DHT22;15937;50.612;6.656;2024-03-23T05:19:41;5.10;99.90
26270;DHT22;15937;50.612;6.656;2024-03-23T05:23:42;5.10;99.90
26270;DHT22;15937;50.612;6.656;2024-03-23T05:27:44;5.20;99.90
26270;DHT22;15937;50.612;6.656;2024-03-23T05:31:51;5.10;99.90
26270;DHT22;15937;50.612;6.656;2024-03-23T05:36:00;5.30;99.90
26270;DHT22;15937;50.612;6.656;2024-03-23T05:40:01;5.20;99.90
26270;DHT22;15937;50.612;6.656;2024-03-23T05:44:04;5.20;99.90
26270;DHT22;15937;50.612;6.656;2024-03-23T05:48:05;5.20;99.90
26270;DHT22;15937;50.612;6.656;2024-03-23T05:52:08;5.20;99.90
26270;DHT22;15937;50.612;6.656;2024-03-23T05:56:09;5.30;99.90
26270;DHT22;15937;50.612;6.656;2024-03-23T06:00:11;5.30;99.90
26270;DHT22;15937;50.612;6.656;2024-03-23T06:04:16;5.20;99.90
26270;DHT22;15937;50.612;6.656;2024-03-23T06:08:17;5.30;99.90
26270;DHT22;15937;50.612;6.656;2024-03-23T06:12:22;5.30;99.90
26270;DHT22;15937;50.612;6.656;2024-03-23T06:16:23;5.20;99.90
26270;DHT22;15937;50.612;6.656;2024-03-23T06:20:25;5.10;99.90
26270;DHT22;15937;50.612;6.656;2024-03-23T06:24:27;5.10;99.90
26270;DHT22;15937;50.612;6.656;2024-03-23T06:28:28;5.20;99.90
26270;DHT22;15937;50.612;6.656;2024-03-23T06:32:29;5.10;99.90
26270;DHT22;15937;50.612;6.656;2024-03-23T06:36:31;5.20;99.90
26270;DHT22;15937;50.612;6.656;2024-03-23T06:40:37;5.10;99.90
26270;DHT22;15937;50.612;6.656;2024-03-23T06:44:38;5.40;99.90
26270;DHT22;15937;50.612;6.656;2024-03-23T06:48:41;5.50;99.90
26270;DHT22;15937;50.612;6.656;2024-03-23T06:52:44;5.60;99.90
26270;DHT22;15937;50.612;6.656;2024-03-23T06:56:49;5.60;99.90
26270;DHT22;15937;50.612;6.656;2024-03-23T07:00:50;5.80;99.90
26270;DHT22;15937;50.612;6.656;2024-03-23T07:05:01;5.90;99.90
26270;DHT22;15937;50.612;6.656;2024-03-23T07:09:05;5.80;99.90
26270;DHT22;15937;50.612;6.656;2024-03-23T07:13:06;6.10;99.90
26270;DHT22;15937;50.612;6.656;2024-03-23T07:17:07;6.20;99.90
26270;DHT22;15937;50.612;6.656;2024-03-23T07:21:10;6.20;99.90
26270;DHT22;15937;50.612;6.656;2024-03-23T07:25:11;6.30;99.90
26270;DHT22;15937;50.612;6.656;2024-03-23T07:29:14;6.40;99.90
26270;DHT22;15937;50.612;6.656;2024-03-23T07:33:16;6.50;99.90
26270;DHT22;15937;50.612;6.656;2024-03-23T07:37:20;6.60;99.90
26270;DHT22;15937;50.612;6.656;2024-03-23T07:41:24;6.70;99.90
26270;DHT22;15937;50.612;6.656;2024-03-23T07:45:25;6.60;99.90
26270;DHT22;15937;50.612;6.656;2024-03-23T07:49:29;6.90;99.90
26270;DHT22;15937;50.612;6.656;2024-03-23T07:53:31;6.90;99.90
26270;DHT22;15937;50.612;6.656;2024-03-23T07:57:32;7.00;99.90
26270;DHT22;15937;50.612;6.656;2024-03-23T08:01:33;7.00;99.90
26270;DHT22;15937;50.612;6.656;2024-03-23T08:05:34;7.20;99.90
26270;DHT22;15937;50.612;6.656;2024-03-23T08:09:38;7.40;99.90
26270;DHT22;15937;50.612;6.656;2024-03-23T08:13:40;7.30;99.90
26270;DHT22;15937;50.612;6.656;2024-03-23T08:17:41;7.00;99.90
26270;DHT22;15937;50.612;6.656;2024-03-23T08:21:42;7.10;99.90
26270;DHT22;15937;50.612;6.656;2024-03-23T08:25:46;7.10;99.90
26270;DHT22;15937;50.612;6.656;2024-03-23T08:29:47;7.10;99.90
26270;DHT22;15937;50.612;6.656;2024-03-23T08:33:49;7.60;99.90
26270;DHT22;15937;50.612;6.656;2024-03-23T08:37:52;7.70;99.90
26270;DHT22;15937;50.612;6.656;2024-03-23T08:41:53;7.90;99.90
26270;DHT22;15937;50.612;6.656;2024-03-23T08:46:02;7.70;99.90
26270;DHT22;15937;50.612;6.656;2024-03-23T08:50:03;7.80;99.90
26270;DHT22;15937;50.612;6.656;2024-03-23T08:54:05;7.80;99.90
26270;DHT22;15937;50.612;6.656;2024-03-23T08:58:06;7.80;99.90
26270;DHT22;15937;50.612;6.656;2024-03-23T09:02:09;7.70;99.90
26270;DHT22;15937;50.612;6.656;2024-03-23T09:06:12;7.80;99.90
26270;DHT22;15937;50.612;6.656;2024-03-23T09:10:13;7.90;99.90
26270;DHT22;15937;50.612;6.656;2024-03-23T09:14:15;7.70;99.90
26270;DHT22;15937;50.612;6.656;2024-03-23T09:18:16;7.60;99.90
26270;DHT22;15937;50.612;6.656;2024-03-23T09:22:17;7.70;99.90
26270;DHT22;15937;50.612;6.656;2024-03-23T09:26:18;7.90;99.90
26270;DHT22;15937;50.612;6.656;2024-03-23T09:30:20;8.10;99.90
26270;DHT22;15937;50.612;6.656;2024-03-23T09:34:21;8.20;99.90
26270;DHT22;15937;50.612;6.656;2024-03-23T09:38:25;8.50;99.90
26270;DHT22;15937;50.612;6.656;2024-03-23T09:42:26;8.40;99.90
26270;DHT22;15937;50.612;6.656;2024-03-23T09:46:27;8.30;99.90
26270;DHT22;15937;50.612;6.656;2024-03-23T09:50:30;8.10;99.90
26270;DHT22;15937;50.612;6.656;2024-03-23T09:54:31;8.50;99.90
26270;DHT22;15937;50.612;6.656;2024-03-23T09:58:32;8.80;99.90
26270;DHT22;15937;50.612;6.656;2024-03-23T10:02:37;8.60;99.90
26270;DHT22;15937;50.612;6.656;2024-03-23T10:06:37;6.50;99.90
26270;DHT22;15937;50.612;6.656;2024-03-23T10:10:39;4.90;99.90
26270;DHT22;15937;50.612;6.656;2024-03-23T10:14:40;4.30;99.90
26270;DHT22;15937;50.612;6.656;2024-03-23T10:18:41;4.30;99.90
26270;DHT22;15937;50.612;6.656;2024-03-23T10:22:42;4.00;99.90
26270;DHT22;15937;50.612;6.656;2024-03-23T10:26:56;4.00;99.90
26270;DHT22;15937;50.612;6.656;2024-03-23T10:31:00;4.00;99.90
26270;DHT22;15937;50.612;6.656;2024-03-23T10:35:21;4.30;99.90
26270;DHT22;15937;50.612;6.656;2024-03-23T10:39:25;4.90;99.90
26270;DHT22;15937;50.612;6.656;2024-03-23T10:43:26;5.10;99.90
26270;DHT22;15937;50.612;6.656;2024-03-23T10:47:27;5.40;99.90
26270;DHT22;15937;50.612;6.656;2024-03-23T10:51:28;5.70;99.90
26270;DHT22;15937;50.612;6.656;2024-03-23T10:55:30;6.20;99.90
26270;DHT22;15937;50.612;6.656;2024-03-23T10:59:31;6.50;99.90
26270;DHT22;15937;50.612;6.656;2024-03-23T11:03:35;6.90;99.90
26270;DHT22;15937;50.612;6.656;2024-03-23T11:07:38;7.20;99.90
26270;DHT22;15937;50.612;6.656;2024-03-23T11:11:39;7.40;99.90
26270;DHT22;15937;50.612;6.656;2024-03-23T11:15:40;6.90;99.90
26270;DHT22;15937;50.612;6.656;2024-03-23T11:20:13;7.10;99.90
26270;DHT22;15937;50.612;6.656;2024-03-23T11:24:14;6.90;99.90
26270;DHT22;15937;50.612;6.656;2024-03-23T11:28:16;6.80;99.90
26270;DHT22;15937;50.612;6.656;2024-03-23T11:32:17;6.30;99.90
26270;DHT22;15937;50.612;6.656;2024-03-23T11:36:19;6.00;99.90
26270;DHT22;15937;50.612;6.656;2024-03-23T11:40:20;6.30;99.90
26270;DHT22;15937;50.612;6.656;2024-03-23T11:44:24;6.40;99.90
26270;DHT22;15937;50.612;6.656;2024-03-23T11:48:25;7.10;99.90
26270;DHT22;15937;50.612;6.656;2024-03-23T11:52:28;7.20;99.90
26270;DHT22;15937;50.612;6.656;2024-03-23T11:56:29;6.70;99.90
26270;DHT22;15937;50.612;6.656;2024-03-23T12:00:30;6.60;99.90
26270;DHT22;15937;50.612;6.656;2024-03-23T12:04:34;6.70;99.90
26270;DHT22;15937;50.612;6.656;2024-03-23T12:08:39;7.00;99.90
26270;DHT22;15937;50.612;6.656;2024-03-23T12:12:40;7.50;99.90
26270;DHT22;15937;50.612;6.656;2024-03-23T12:16:40;7.10;99.90
26270;DHT22;15937;50.612;6.656;2024-03-23T12:20:42;6.90;99.90
26270;DHT22;15937;50.612;6.656;2024-03-23T12:24:42;7.20;99.90
26270;DHT22;15937;50.612;6.656;2024-03-23T12:28:47;7.50;99.90
26270;DHT22;15937;50.612;6.656;2024-03-23T12:32:48;8.10;99.90
26270;DHT22;15937;50.612;6.656;2024-03-23T12:36:49;8.40;99.90
26270;DHT22;15937;50.612;6.656;2024-03-23T12:40:51;8.20;99.90
26270;DHT22;15937;50.612;6.656;2024-03-23T12:44:52;8.40;99.90
26270;DHT22;15937;50.612;6.656;2024-03-23T12:48:53;8.20;99.90
26270;DHT22;15937;50.612;6.656;2024-03-23T12:52:54;8.00;99.90
26270;DHT22;15937;50.612;6.656;2024-03-23T12:56:55;8.00;99.90
26270;DHT22;15937;50.612;6.656;2024-03-23T13:00:58;8.10;99.90
26270;DHT22;15937;50.612;6.656;2024-03-23T13:04:59;7.90;99.90
26270;DHT22;15937;50.612;6.656;2024-03-23T13:09:04;8.00;99.90
26270;DHT22;15937;50.612;6.656;2024-03-23T13:13:06;7.80;99.90
26270;DHT22;15937;50.612;6.656;2024-03-23T13:17:08;7.80;99.90
26270;DHT22;15937;50.612;6.656;2024-03-23T13:21:09;7.70;99.90
26270;DHT22;15937;50.612;6.656;2024-03-23T13:25:11;8.50;99.90
26270;DHT22;15937;50.612;6.656;2024-03-23T13:29:12;8.50;99.90
26270;DHT22;15937;50.612;6.656;2024-03-23T13:33:13;8.70;99.90
26270;DHT22;15937;50.612;6.656;2024-03-23T13:37:15;8.90;99.90
26270;DHT22;15937;50.612;6.656;2024-03-23T13:41:17;8.30;99.90
26270;DHT22;15937;50.612;6.656;2024-03-23T13:45:18;7.70;99.90
26270;DHT22;15937;50.612;6.656;2024-03-23T13:53:29;7.10;99.90
26270;DHT22;15937;50.612;6.656;2024-03-23T13:57:30;7.20;99.90
26270;DHT22;15937;50.612;6.656;2024-03-23T14:01:30;7.80;99.90
26270;DHT22;15937;50.612;6.656;2024-03-23T14:05:32;8.30;99.90
26270;DHT22;15937;50.612;6.656;2024-03-23T14:09:33;8.40;99.90
26270;DHT22;15937;50.612;6.656;2024-03-23T14:13:34;8.80;99.90
26270;DHT22;15937;50.612;6.656;2024-03-23T14:17:39;8.70;99.90
26270;DHT22;15937;50.612;6.656;2024-03-23T14:21:40;9.20;99.90
26270;DHT22;15937;50.612;6.656;2024-03-23T14:25:41;8.10;99.90
26270;DHT22;15937;50.612;6.656;2024-03-23T14:29:45;7.60;99.90
26270;DHT22;15937;50.612;6.656;2024-03-23T14:33:47;7.50;99.90
26270;DHT22;15937;50.612;6.656;2024-03-23T14:37:48;7.70;99.90
26270;DHT22;15937;50.612;6.656;2024-03-23T14:41:50;7.10;99.90
26270;DHT22;15937;50.612;6.656;2024-03-23T14:46:07;5.80;99.90
26270;DHT22;15937;50.612;6.656;2024-03-23T14:50:08;5.50;99.90
26270;DHT22;15937;50.612;6.656;2024-03-23T14:54:13;5.80;99.90
26270;DHT22;15937;50.612;6.656;2024-03-23T14:58:14;6.10;99.90
26270;DHT22;15937;50.612;6.656;2024-03-23T15:02:15;6.20;99.90
26270;DHT22;15937;50.612;6.656;2024-03-23T15:06:16;6.20;99.90
26270;DHT22;15937;50.612;6.656;2024-03-23T15:10:17;6.20;99.90
26270;DHT22;15937;50.612;6.656;2024-03-23T15:14:18;6.30;99.90
26270;DHT22;15937;50.612;6.656;2024-03-23T15:18:21;6.30;99.90
26270;DHT22;15937;50.612;6.656;2024-03-23T15:22:29;6.30;99.90
26270;DHT22;15937;50.612;6.656;2024-03-23T15:26:30;6.20;99.90
26270;DHT22;15937;50.612;6.656;2024-03-23T15:30:31;6.20;99.90
26270;DHT22;15937;50.612;6.656;2024-03-23T15:34:33;6.60;99.90
26270;DHT22;15937;50.612;6.656;2024-03-23T15:38:34;7.20;99.90
26270;DHT22;15937;50.612;6.656;2024-03-23T15:42:35;7.00;99.90
26270;DHT22;15937;50.612;6.656;2024-03-23T15:46:36;6.90;99.90
26270;DHT22;15937;50.612;6.656;2024-03-23T15:50:37;6.80;99.90
26270;DHT22;15937;50.612;6.656;2024-03-23T15:54:38;6.70;99.90
26270;DHT22;15937;50.612;6.656;2024-03-23T15:58:40;6.60;99.90
26270;DHT22;15937;50.612;6.656;2024-03-23T16:02:41;6.50;99.90
26270;DHT22;15937;50.612;6.656;2024-03-23T16:06:42;6.20;99.90
26270;DHT22;15937;50.612;6.656;2024-03-23T16:10:44;5.90;99.90
26270;DHT22;15937;50.612;6.656;2024-03-23T16:14:46;5.80;99.90
26270;DHT22;15937;50.612;6.656;2024-03-23T16:18:47;5.80;99.90
26270;DHT22;15937;50.612;6.656;2024-03-23T16:22:48;5.70;99.90
26270;DHT22;15937;50.612;6.656;2024-03-23T16:26:49;5.60;99.90
26270;DHT22;15937;50.612;6.656;2024-03-23T16:34:57;5.40;99.90
26270;DHT22;15937;50.612;6.656;2024-03-23T16:38:59;5.70;99.90
26270;DHT22;15937;50.612;6.656;2024-03-23T16:43:00;5.90;99.90
26270;DHT22;15937;50.612;6.656;2024-03-23T16:47:01;6.00;99.90
26270;DHT22;15937;50.612;6.656;2024-03-23T16:51:03;6.00;99.90
26270;DHT22;15937;50.612;6.656;2024-03-23T16:55:04;5.80;99.90
26270;DHT22;15937;50.612;6.656;2024-03-23T16:59:06;5.70;99.90
26270;DHT22;15937;50.612;6.656;2024-03-23T17:03:07;5.70;99.90
26270;DHT22;15937;50.612;6.656;2024-03-23T17:07:09;5.60;99.90
26270;DHT22;15937;50.612;6.656;2024-03-23T17:11:10;5.60;99.90
26270;DHT22;15937;50.612;6.656;2024-03-23T17:15:11;5.50;99.90
26270;DHT22;15937;50.612;6.656;2024-03-23T17:19:12;5.30;99.90
26270;DHT22;15937;50.612;6.656;2024-03-23T17:23:23;5.30;99.90
26270;DHT22;15937;50.612;6.656;2024-03-23T17:27:26;5.30;99.90
26270;DHT22;15937;50.612;6.656;2024-03-23T17:31:27;5.30;99.90
26270;DHT22;15937;50.612;6.656;2024-03-23T17:35:28;5.10;99.90
26270;DHT22;15937;50.612;6.656;2024-03-23T17:39:32;5.10;99.90
26270;DHT22;15937;50.612;6.656;2024-03-23T17:43:33;5.10;99.90
26270;DHT22;15937;50.612;6.656;2024-03-23T17:47:35;5.00;99.90
26270;DHT22;15937;50.612;6.656;2024-03-23T17:51:37;4.90;99.90
26270;DHT22;15937;50.612;6.656;2024-03-23T17:55:38;4.90;99.90
26270;DHT22;15937;50.612;6.656;2024-03-23T17:59:40;4.90;99.90
26270;DHT22;15937;50.612;6.656;2024-03-23T18:03:41;4.80;99.90
26270;DHT22;15937;50.612;6.656;2024-03-23T18:07:43;4.80;99.90
26270;DHT22;15937;50.612;6.656;2024-03-23T18:11:44;4.70;99.90
26270;DHT22;15937;50.612;6.656;2024-03-23T18:15:45;4.70;99.90
26270;DHT22;15937;50.612;6.656;2024-03-23T18:19:46;4.70;99.90
26270;DHT22;15937;50.612;6.656;2024-03-23T18:23:48;4.80;99.90
26270;DHT22;15937;50.612;6.656;2024-03-23T18:27:49;4.90;99.90
26270;DHT22;15937;50.612;6.656;2024-03-23T18:31:49;4.80;99.90
26270;DHT22;15937;50.612;6.656;2024-03-23T18:35:52;4.70;99.90
26270;DHT22;15937;50.612;6.656;2024-03-23T18:39:53;4.80;99.90
26270;DHT22;15937;50.612;6.656;2024-03-23T18:43:54;4.90;99.90
26270;DHT22;15937;50.612;6.656;2024-03-23T18:47:58;4.90;99.90
26270;DHT22;15937;50.612;6.656;2024-03-23T18:52:00;4.90;99.90
26270;DHT22;15937;50.612;6.656;2024-03-23T18:56:02;4.90;99.90
26270;DHT22;15937;50.612;6.656;2024-03-23T19:00:04;5.00;99.90
26270;DHT22;15937;50.612;6.656;2024-03-23T19:04:06;5.00;99.90
26270;DHT22;15937;50.612;6.656;2024-03-23T19:08:07;5.00;99.90
26270;DHT22;15937;50.612;6.656;2024-03-23T19:12:08;4.90;99.90
26270;DHT22;15937;50.612;6.656;2024-03-23T19:16:09;4.90;99.90
26270;DHT22;15937;50.612;6.656;2024-03-23T19:20:11;4.90;99.90
26270;DHT22;15937;50.612;6.656;2024-03-23T19:24:12;4.90;99.90
26270;DHT22;15937;50.612;6.656;2024-03-23T19:28:13;4.90;99.90
26270;DHT22;15937;50.612;6.656;2024-03-23T19:32:15;5.00;99.90
26270;DHT22;15937;50.612;6.656;2024-03-23T19:36:16;5.00;99.90
26270;DHT22;15937;50.612;6.656;2024-03-23T19:40:19;4.90;99.90
26270;DHT22;15937;50.612;6.656;2024-03-23T19:44:19;4.90;99.90
26270;DHT22;15937;50.612;6.656;2024-03-23T19:48:21;4.90;99.90
26270;DHT22;15937;50.612;6.656;2024-03-23T19:52:22;5.00;99.90
26270;DHT22;15937;50.612;6.656;2024-03-23T19:56:23;4.90;99.90
26270;DHT22;15937;50.612;6.656;2024-03-23T20:00:24;4.90;99.90
26270;DHT22;15937;50.612;6.656;2024-03-23T20:04:26;5.00;99.90
26270;DHT22;15937;50.612;6.656;2024-03-23T20:08:27;5.00;99.90
26270;DHT22;15937;50.612;6.656;2024-03-23T20:12:28;5.00;99.90
26270;DHT22;15937;50.612;6.656;2024-03-23T20:16:29;4.80;99.90
26270;DHT22;15937;50.612;6.656;2024-03-23T20:20:32;4.90;99.90
26270;DHT22;15937;50.612;6.656;2024-03-23T20:24:33;4.70;99.90
26270;DHT22;15937;50.612;6.656;2024-03-23T20:28:34;4.60;99.90
26270;DHT22;15937;50.612;6.656;2024-03-23T20:32:35;4.60;99.90
26270;DHT22;15937;50.612;6.656;2024-03-23T20:36:37;4.60;99.90
26270;DHT22;15937;50.612;6.656;2024-03-23T20:40:39;4.50;99.90
26270;DHT22;15937;50.612;6.656;2024-03-23T20:44:40;4.50;99.90
26270;DHT22;15937;50.612;6.656;2024-03-23T20:48:41;4.50;99.90
26270;DHT22;15937;50.612;6.656;2024-03-23T20:52:43;4.50;99.90
26270;DHT22;15937;50.612;6.656;2024-03-23T20:56:44;4.40;99.90
26270;DHT22;15937;50.612;6.656;2024-03-23T21:00:46;4.40;99.90
26270;DHT22;15937;50.612;6.656;2024-03-23T21:04:48;4.40;99.90
26270;DHT22;15937;50.612;6.656;2024-03-23T21:08:49;4.40;99.90
26270;DHT22;15937;50.612;6.656;2024-03-23T21:12:50;4.40;99.90
26270;DHT22;15937;50.612;6.656;2024-03-23T21:16:53;4.40;99.90
26270;DHT22;15937;50.612;6.656;2024-03-23T21:20:55;4.40;99.90
26270;DHT22;15937;50.612;6.656;2024-03-23T21:25:00;4.50;99.90
26270;DHT22;15937;50.612;6.656;2024-03-23T21:29:01;4.50;99.90
26270;DHT22;15937;50.612;6.656;2024-03-23T21:33:03;4.50;99.90
26270;DHT22;15937;50.612;6.656;2024-03-23T21:37:05;4.60;99.90
26270;DHT22;15937;50.612;6.656;2024-03-23T21:41:06;4.60;99.90
26270;DHT22;15937;50.612;6.656;2024-03-23T21:45:08;4.60;99.90
26270;DHT22;15937;50.612;6.656;2024-03-23T21:49:10;4.70;99.90
26270;DHT22;15937;50.612;6.656;2024-03-23T21:53:12;4.70;99.90
26270;DHT22;15937;50.612;6.656;2024-03-23T21:57:13;4.70;99.90
26270;DHT22;15937;50.612;6.656;2024-03-23T22:01:14;4.70;99.90
26270;DHT22;15937;50.612;6.656;2024-03-23T22:05:17;4.80;99.90
26270;DHT22;15937;50.612;6.656;2024-03-23T22:09:18;4.80;99.90
26270;DHT22;15937;50.612;6.656;2024-03-23T22:13:20;4.90;99.90
26270;DHT22;15937;50.612;6.656;2024-03-23T22:17:21;4.90;99.90
26270;DHT22;15937;50.612;6.656;2024-03-23T22:21:24;4.80;99.90
26270;DHT22;15937;50.612;6.656;2024-03-23T22:25:25;4.80;99.90
26270;DHT22;15937;50.612;6.656;2024-03-23T22:29:26;4.90;99.90
26270;DHT22;15937;50.612;6.656;2024-03-23T22:33:27;4.90;99.90
26270;DHT22;15937;50.612;6.656;2024-03-23T22:37:29;4.90;99.90
26270;DHT22;15937;50.612;6.656;2024-03-23T22:41:31;4.90;99.90
26270;DHT22;15937;50.612;6.656;2024-03-23T22:45:32;4.90;99.90
26270;DHT22;15937;50.612;6.656;2024-03-23T22:49:33;5.00;99.90
26270;DHT22;15937;50.612;6.656;2024-03-23T22:53:34;5.00;99.90
26270;DHT22;15937;50.612;6.656;2024-03-23T22:57:35;4.90;99.90
26270;DHT22;15937;50.612;6.656;2024-03-23T23:01:36;4.90;99.90
26270;DHT22;15937;50.612;6.656;2024-03-23T23:05:38;4.90;99.90
26270;DHT22;15937;50.612;6.656;2024-03-23T23:09:40;4.90;99.90
26270;DHT22;15937;50.612;6.656;2024-03-23T23:13:41;4.90;99.90
26270;DHT22;15937;50.612;6.656;2024-03-23T23:17:42;4.90;99.90
26270;DHT22;15937;50.612;6.656;2024-03-23T23:21:46;4.90;99.90
26270;DHT22;15937;50.612;6.656;2024-03-23T23:25:47;4.90;99.90
26270;DHT22;15937;50.612;6.656;2024-03-23T23:29:48;4.80;99.90
26270;DHT22;15937;50.612;6.656;2024-03-23T23:33:49;4.70;99.90
26270;DHT22;15937;50.612;6.656;2024-03-23T23:37:53;4.70;99.90
26270;DHT22;15937;50.612;6.656;2024-03-23T23:41:54;4.70;99.90
26270;DHT22;15937;50.612;6.656;2024-03-23T23:45:55;4.70;99.90
26270;DHT22;15937;50.612;6.656;2024-03-23T23:49:59;4.80;99.90
26270;DHT22;15937;50.612;6.656;2024-03-23T23:53:59;4.80;99.90
26270;DHT22;15937;50.612;6.656;2024-03-23T23:58:01;4.80;99.90
